Time;durP1;ratioP1;P1;durP2;ratioP2;P2;SDS_P1;SDS_P2;PMS_P1;PMS_P2;Temp;Humidity;BMP_temperature;BMP_pressure;BME280_temperature;BME280_humidity;BME280_pressure;Samples;Min_cycle;Max_cycle;Signal;HPM_P1;HPM_P2
2022/12/18 00:01:52;;;;;;;71.82;34.08;;;;;;;;;;5085605;28;20390;-70
2022/12/18 00:04:22;;;;;;;72.47;35.33;;;;;;;;;;5065958;28;20040;-69
2022/12/18 00:06:49;;;;;;;71.40;36.63;;;;;;;;;;5086308;28;20054;-70
2022/12/18 00:09:15;;;;;;;65.72;33.88;;;;;;;;;;5072142;28;20382;-70
2022/12/18 00:11:41;;;;;;;78.80;37.75;;;;;;;;;;5087275;28;20039;-70
2022/12/18 00:14:07;;;;;;;69.25;36.67;;;;;;;;;;5085582;28;20044;-72
2022/12/18 00:16:35;;;;;;;75.10;35.53;;;;;;;;;;5089801;28;20044;-70
2022/12/18 00:19:01;;;;;;;66.10;34.22;;;;;;;;;;5080399;28;20097;-71
2022/12/18 00:21:28;;;;;;;62.08;32.88;;;;;;;;;;5087557;28;20501;-70
2022/12/18 00:23:55;;;;;;;61.42;32.40;;;;;;;;;;5090935;28;20040;-70
2022/12/18 00:26:23;;;;;;;64.20;33.75;;;;;;;;;;5070158;28;20420;-70
2022/12/18 00:28:49;;;;;;;58.72;32.33;;;;;;;;;;5070286;28;20413;-70
2022/12/18 00:31:17;;;;;;;60.55;32.97;;;;;;;;;;5092147;28;20835;-70
2022/12/18 00:33:44;;;;;;;63.25;34.97;;;;;;;;;;5077010;28;20043;-70
2022/12/18 00:36:14;;;;;;;60.33;33.17;;;;;;;;;;5055848;28;20044;-71
2022/12/18 00:38:41;;;;;;;66.22;33.50;;;;;;;;;;5093108;28;20035;-70
2022/12/18 00:41:10;;;;;;;55.72;29.67;;;;;;;;;;5085064;28;20562;-70
2022/12/18 00:43:36;;;;;;;64.20;33.40;;;;;;;;;;5087917;28;20032;-70
2022/12/18 00:46:03;;;;;;;77.57;33.78;;;;;;;;;;5087854;28;20040;-70
2022/12/18 00:48:29;;;;;;;62.15;34.58;;;;;;;;;;5088000;28;20125;-70
2022/12/18 00:50:55;;;;;;;57.03;32.10;;;;;;;;;;5082395;28;20127;-70
2022/12/18 00:53:21;;;;;;;67.85;35.47;;;;;;;;;;5071490;28;20579;-70
2022/12/18 00:55:47;;;;;;;59.53;32.58;;;;;;;;;;5071771;28;20051;-70
2022/12/18 00:58:15;;;;;;;70.20;32.33;;;;;;;;;;5087512;28;20047;-70
2022/12/18 01:00:41;;;;;;;69.63;33.33;;;;;;;;;;5085643;28;20076;-70
2022/12/18 01:03:07;;;;;;;60.03;34.58;;;;;;;;;;5089337;28;20069;-70
2022/12/18 01:05:33;;;;;;;60.13;31.98;;;;;;;;;;5087476;28;20700;-70
2022/12/18 01:08:00;;;;;;;73.38;34.05;;;;;;;;;;5057380;28;20473;-69
2022/12/18 01:10:26;;;;;;;61.72;32.63;;;;;;;;;;5087947;28;20142;-70
2022/12/18 01:12:52;;;;;;;57.85;33.83;;;;;;;;;;5075598;28;20036;-70
2022/12/18 01:15:19;;;;;;;58.55;30.15;;;;;;;;;;5086857;28;20123;-69
2022/12/18 01:17:45;;;;;;;59.15;32.55;;;;;;;;;;5086386;28;20122;-70
2022/12/18 01:20:12;;;;;;;65.40;33.17;;;;;;;;;;5093774;28;20116;-70
2022/12/18 01:22:38;;;;;;;68.95;33.30;;;;;;;;;;5090032;28;20501;-70
2022/12/18 01:25:05;;;;;;;62.22;32.58;;;;;;;;;;5086995;28;20139;-70
2022/12/18 01:27:31;;;;;;;55.50;29.95;;;;;;;;;;5090217;28;20032;-70
2022/12/18 01:29:57;;;;;;;65.43;31.15;;;;;;;;;;5088010;28;20082;-71
2022/12/18 01:32:24;;;;;;;60.22;33.30;;;;;;;;;;5084668;28;20040;-70
2022/12/18 01:34:50;;;;;;;65.45;33.42;;;;;;;;;;5058719;28;20512;-70
2022/12/18 01:37:16;;;;;;;64.63;33.92;;;;;;;;;;5087938;28;20036;-70
2022/12/18 01:39:42;;;;;;;66.72;32.50;;;;;;;;;;5089684;28;20501;-69
2022/12/18 01:42:13;;;;;;;68.95;34.70;;;;;;;;;;5082861;28;20067;-70
2022/12/18 01:44:58;;;;;;;76.35;30.90;;;;;;;;;;5092504;28;20042;-72
2022/12/18 01:47:24;;;;;;;65.80;32.45;;;;;;;;;;5092642;28;20024;-70
2022/12/18 01:49:50;;;;;;;59.53;34.17;;;;;;;;;;5089623;28;20127;-70
2022/12/18 01:52:17;;;;;;;71.20;32.95;;;;;;;;;;5091482;28;20043;-70
2022/12/18 01:54:44;;;;;;;68.78;34.10;;;;;;;;;;5082591;28;20501;-70
2022/12/18 01:57:10;;;;;;;65.47;34.17;;;;;;;;;;5097893;28;20081;-70
2022/12/18 01:59:37;;;;;;;73.85;34.88;;;;;;;;;;5095825;28;20118;-69
2022/12/18 02:02:03;;;;;;;76.40;35.17;;;;;;;;;;5083985;28;20614;-70
2022/12/18 02:04:30;;;;;;;63.55;30.92;;;;;;;;;;5090153;28;20036;-70
2022/12/18 02:07:08;;;;;;;63.92;33.17;;;;;;;;;;5100110;28;20119;-70
2022/12/18 02:09:37;;;;;;;62.30;30.85;;;;;;;;;;5106066;28;20063;-72
2022/12/18 02:12:13;;;;;;;63.63;32.30;;;;;;;;;;5110211;27;20556;-70
2022/12/18 02:14:42;;;;;;;64.15;30.40;;;;;;;;;;5095003;28;20040;-71
2022/12/18 02:17:08;;;;;;;65.47;32.97;;;;;;;;;;5108866;27;20100;-70
2022/12/18 02:19:34;;;;;;;68.07;31.45;;;;;;;;;;5095854;28;20077;-70
2022/12/18 02:22:09;;;;;;;65.05;31.33;;;;;;;;;;5077138;28;20210;-70
2022/12/18 02:24:38;;;;;;;76.82;34.88;;;;;;;;;;5087190;28;20032;-70
2022/12/18 02:27:06;;;;;;;69.40;30.63;;;;;;;;;;5093046;28;20478;-70
2022/12/18 02:29:41;;;;;;;67.50;35.60;;;;;;;;;;5092606;28;20032;-71
2022/12/18 02:32:10;;;;;;;61.00;31.60;;;;;;;;;;5086345;28;20109;-70
2022/12/18 02:34:38;;;;;;;68.05;29.75;;;;;;;;;;5094503;28;20166;-71
2022/12/18 02:37:06;;;;;;;72.43;33.70;;;;;;;;;;5094315;28;20486;-70
2022/12/18 02:39:33;;;;;;;63.38;32.50;;;;;;;;;;5088012;28;20079;-69
2022/12/18 02:42:02;;;;;;;64.97;31.65;;;;;;;;;;5097419;28;20044;-69
2022/12/18 02:44:28;;;;;;;61.83;30.95;;;;;;;;;;5093037;28;20072;-70
2022/12/18 02:46:55;;;;;;;64.70;31.88;;;;;;;;;;5086860;28;20115;-70
2022/12/18 02:49:41;;;;;;;64.10;31.45;;;;;;;;;;5098515;28;20193;-70
2022/12/18 02:52:32;;;;;;;63.65;31.27;;;;;;;;;;5024029;28;20056;-70
2022/12/18 02:55:08;;;;;;;64.47;29.85;;;;;;;;;;5104891;28;20104;-71
2022/12/18 02:57:35;;;;;;;61.20;28.25;;;;;;;;;;5091818;28;20036;-70
2022/12/18 03:00:03;;;;;;;62.75;28.88;;;;;;;;;;5092182;28;20120;-71
2022/12/18 03:02:37;;;;;;;55.72;30.52;;;;;;;;;;5090042;28;20053;-70
2022/12/18 03:05:03;;;;;;;51.90;27.92;;;;;;;;;;5079031;28;20115;-70
2022/12/18 03:07:38;;;;;;;60.50;30.33;;;;;;;;;;5078760;28;20040;-70
2022/12/18 03:10:07;;;;;;;52.45;27.05;;;;;;;;;;5088169;28;20418;-70
2022/12/18 03:12:36;;;;;;;63.85;32.13;;;;;;;;;;5091701;28;20052;-70
2022/12/18 03:15:10;;;;;;;62.20;29.58;;;;;;;;;;5086709;28;20055;-71
2022/12/18 03:17:37;;;;;;;58.45;29.70;;;;;;;;;;5079371;28;20044;-70
2022/12/18 03:20:06;;;;;;;67.13;30.05;;;;;;;;;;5074894;28;20028;-70
2022/12/18 03:22:34;;;;;;;60.08;29.13;;;;;;;;;;5067952;28;20036;-70
2022/12/18 03:25:01;;;;;;;67.68;32.63;;;;;;;;;;5089987;28;20032;-70
2022/12/18 03:27:29;;;;;;;58.17;29.33;;;;;;;;;;5097576;28;20032;-70
2022/12/18 03:30:10;;;;;;;61.20;30.85;;;;;;;;;;5092060;28;20048;-70
2022/12/18 03:32:45;;;;;;;62.55;30.05;;;;;;;;;;5090932;28;20040;-70
2022/12/18 03:35:12;;;;;;;65.50;32.25;;;;;;;;;;5087885;28;20040;-72
2022/12/18 03:37:38;;;;;;;59.22;30.35;;;;;;;;;;5089825;28;20082;-71
2022/12/18 03:40:05;;;;;;;58.85;29.42;;;;;;;;;;5091338;28;20468;-71
2022/12/18 03:42:44;;;;;;;70.15;32.97;;;;;;;;;;5078674;28;20035;-71
2022/12/18 03:45:29;;;;;;;70.90;29.10;;;;;;;;;;5089280;28;20050;-71
2022/12/18 03:48:06;;;;;;;56.72;29.70;;;;;;;;;;5085391;28;20664;-71
2022/12/18 03:50:32;;;;;;;65.55;29.23;;;;;;;;;;5091418;28;20043;-71
2022/12/18 03:53:03;;;;;;;62.58;31.73;;;;;;;;;;5093206;28;20043;-71
2022/12/18 03:55:32;;;;;;;52.80;30.25;;;;;;;;;;5073246;28;20054;-71
2022/12/18 03:57:59;;;;;;;64.88;30.80;;;;;;;;;;5105003;28;20048;-71
2022/12/18 04:00:25;;;;;;;62.85;30.67;;;;;;;;;;5087043;28;20123;-71
2022/12/18 04:02:53;;;;;;;60.03;31.58;;;;;;;;;;5073258;28;20043;-71
2022/12/18 04:05:22;;;;;;;63.15;30.70;;;;;;;;;;5072072;28;20420;-71
2022/12/18 04:07:49;;;;;;;63.78;33.13;;;;;;;;;;5093453;28;20024;-71
2022/12/18 04:10:18;;;;;;;66.78;31.67;;;;;;;;;;5078759;28;20059;-71
2022/12/18 04:12:45;;;;;;;68.30;33.38;;;;;;;;;;5071851;28;20501;-70
2022/12/18 04:15:11;;;;;;;62.80;31.98;;;;;;;;;;5087672;28;20071;-71
2022/12/18 04:17:38;;;;;;;71.70;31.23;;;;;;;;;;5089833;28;20080;-70
2022/12/18 04:20:04;;;;;;;71.55;33.38;;;;;;;;;;5088420;28;20639;-69
2022/12/18 04:22:30;;;;;;;71.13;32.58;;;;;;;;;;5090790;28;20043;-71
2022/12/18 04:24:56;;;;;;;63.30;31.42;;;;;;;;;;5089064;28;20378;-71
2022/12/18 04:27:23;;;;;;;57.85;33.10;;;;;;;;;;5089009;28;20406;-71
2022/12/18 04:29:49;;;;;;;63.28;33.88;;;;;;;;;;5074172;28;20044;-71
2022/12/18 04:32:15;;;;;;;61.00;31.45;;;;;;;;;;5084732;28;20066;-71
2022/12/18 04:34:41;;;;;;;67.63;31.27;;;;;;;;;;5084367;28;20094;-71
2022/12/18 04:37:08;;;;;;;63.50;31.08;;;;;;;;;;5068956;28;20048;-71
2022/12/18 04:39:35;;;;;;;71.28;31.33;;;;;;;;;;5087775;28;20422;-70
2022/12/18 04:42:01;;;;;;;66.00;32.10;;;;;;;;;;5076536;28;20085;-71
2022/12/18 04:44:27;;;;;;;67.20;32.67;;;;;;;;;;5070873;28;20032;-71
2022/12/18 04:46:53;;;;;;;55.85;31.17;;;;;;;;;;5075780;28;20085;-70
2022/12/18 04:49:20;;;;;;;57.72;31.23;;;;;;;;;;5084915;28;20445;-71
2022/12/18 04:51:46;;;;;;;54.28;29.95;;;;;;;;;;5072267;28;20056;-71
2022/12/18 04:54:12;;;;;;;67.25;32.15;;;;;;;;;;5083349;28;20352;-71
2022/12/18 04:56:38;;;;;;;71.68;32.63;;;;;;;;;;5071955;28;20063;-71
2022/12/18 04:59:04;;;;;;;66.28;32.35;;;;;;;;;;5087771;28;20083;-71
2022/12/18 05:01:30;;;;;;;58.40;28.88;;;;;;;;;;5073929;28;20040;-71
2022/12/18 05:03:56;;;;;;;63.00;30.73;;;;;;;;;;5086970;28;20040;-70
2022/12/18 05:06:23;;;;;;;70.13;30.70;;;;;;;;;;5087578;28;20459;-70
2022/12/18 05:08:49;;;;;;;53.95;27.15;;;;;;;;;;5088431;28;20051;-69
2022/12/18 05:11:15;;;;;;;62.33;30.70;;;;;;;;;;5088343;28;20044;-70
2022/12/18 05:13:42;;;;;;;55.33;30.15;;;;;;;;;;5092035;28;20043;-70
2022/12/18 05:16:08;;;;;;;44.22;25.33;;;;;;;;;;5091455;28;20044;-69
2022/12/18 05:18:35;;;;;;;52.25;26.88;;;;;;;;;;5066925;28;20041;-70
2022/12/18 05:21:01;;;;;;;57.88;29.38;;;;;;;;;;5079959;28;20646;-69
2022/12/18 05:23:27;;;;;;;51.90;27.27;;;;;;;;;;5085706;28;20079;-69
2022/12/18 05:26:00;;;;;;;52.00;30.58;;;;;;;;;;5082634;28;20083;-70
2022/12/18 05:28:27;;;;;;;47.25;23.98;;;;;;;;;;5091129;28;20045;-70
2022/12/18 05:30:55;;;;;;;60.28;27.95;;;;;;;;;;5085180;28;20048;-69
2022/12/18 05:33:22;;;;;;;52.58;29.33;;;;;;;;;;5089884;28;20073;-69
2022/12/18 05:35:55;;;;;;;47.78;24.67;;;;;;;;;;5093622;28;20501;-70
2022/12/18 05:38:22;;;;;;;48.15;25.85;;;;;;;;;;5090703;28;20043;-69
2022/12/18 05:40:49;;;;;;;43.10;23.70;;;;;;;;;;5083025;28;20127;-69
2022/12/18 05:43:16;;;;;;;51.25;22.88;;;;;;;;;;5104709;28;20134;-70
2022/12/18 05:45:42;;;;;;;42.65;23.85;;;;;;;;;;5090620;28;20044;-69
2022/12/18 05:48:08;;;;;;;46.13;22.98;;;;;;;;;;5087154;28;20028;-69
2022/12/18 05:50:38;;;;;;;55.20;24.20;;;;;;;;;;5054776;28;20394;-70
2022/12/18 05:53:05;;;;;;;50.60;25.17;;;;;;;;;;5080868;28;20048;-69
2022/12/18 05:55:35;;;;;;;49.78;24.30;;;;;;;;;;5082628;28;20510;-69
2022/12/18 05:58:01;;;;;;;38.47;22.85;;;;;;;;;;5082116;28;20040;-69
2022/12/18 06:00:27;;;;;;;39.60;22.42;;;;;;;;;;5074600;28;20131;-70
2022/12/18 06:02:53;;;;;;;44.60;23.95;;;;;;;;;;5086728;28;20429;-70
2022/12/18 06:05:20;;;;;;;48.38;24.17;;;;;;;;;;5078485;28;20168;-72
2022/12/18 06:07:46;;;;;;;50.63;24.23;;;;;;;;;;5076636;28;20491;-70
2022/12/18 06:10:12;;;;;;;50.85;25.95;;;;;;;;;;5083485;28;20078;-70
2022/12/18 06:12:38;;;;;;;45.55;22.08;;;;;;;;;;5071709;28;20036;-70
2022/12/18 06:15:05;;;;;;;44.75;23.83;;;;;;;;;;5094345;28;20043;-70
2022/12/18 06:17:31;;;;;;;35.25;22.25;;;;;;;;;;5061998;28;20464;-70
2022/12/18 06:19:58;;;;;;;44.50;25.00;;;;;;;;;;5077256;28;20046;-70
2022/12/18 06:22:24;;;;;;;38.30;20.55;;;;;;;;;;5053463;28;20082;-70
2022/12/18 06:24:50;;;;;;;45.50;20.83;;;;;;;;;;5076607;28;20080;-70
2022/12/18 06:27:17;;;;;;;44.70;22.75;;;;;;;;;;5080709;28;20482;-71
2022/12/18 06:29:43;;;;;;;43.30;22.00;;;;;;;;;;5078235;28;20036;-70
2022/12/18 06:32:09;;;;;;;38.25;20.42;;;;;;;;;;5076032;28;20641;-70
2022/12/18 06:34:37;;;;;;;42.50;23.63;;;;;;;;;;5083940;28;20035;-70
2022/12/18 06:37:03;;;;;;;39.08;22.42;;;;;;;;;;5077553;28;20048;-70
2022/12/18 06:39:30;;;;;;;39.85;20.42;;;;;;;;;;5085648;28;20051;-70
2022/12/18 06:41:56;;;;;;;43.97;21.00;;;;;;;;;;5082882;28;20084;-70
2022/12/18 06:44:22;;;;;;;43.03;20.73;;;;;;;;;;5080383;28;20032;-70
2022/12/18 06:46:48;;;;;;;42.10;22.85;;;;;;;;;;5088280;28;20032;-69
2022/12/18 06:49:15;;;;;;;37.35;21.33;;;;;;;;;;5082651;28;20044;-70
2022/12/18 06:51:42;;;;;;;40.85;20.77;;;;;;;;;;5082064;28;20056;-71
2022/12/18 06:54:08;;;;;;;41.47;20.10;;;;;;;;;;5072272;28;20131;-70
2022/12/18 06:56:35;;;;;;;41.95;20.73;;;;;;;;;;5093465;28;20121;-70
2022/12/18 06:59:01;;;;;;;38.75;20.48;;;;;;;;;;5070454;28;20044;-69
2022/12/18 07:01:27;;;;;;;36.80;19.75;;;;;;;;;;5085591;28;20128;-70
2022/12/18 07:03:54;;;;;;;34.10;19.20;;;;;;;;;;5065572;28;20055;-69
2022/12/18 07:06:21;;;;;;;35.25;18.60;;;;;;;;;;5082626;28;20054;-70
2022/12/18 07:08:47;;;;;;;37.05;18.42;;;;;;;;;;5068677;28;20046;-70
2022/12/18 07:11:14;;;;;;;39.35;21.65;;;;;;;;;;5079944;28;20147;-70
2022/12/18 07:13:40;;;;;;;33.83;20.17;;;;;;;;;;5090261;28;20078;-70
2022/12/18 07:16:07;;;;;;;35.97;18.67;;;;;;;;;;5079593;28;20110;-70
2022/12/18 07:18:34;;;;;;;29.85;18.02;;;;;;;;;;5083546;28;20520;-72
2022/12/18 07:21:03;;;;;;;39.92;19.10;;;;;;;;;;5081811;28;20126;-72
2022/12/18 07:23:29;;;;;;;29.80;17.45;;;;;;;;;;5083749;28;20050;-71
2022/12/18 07:25:55;;;;;;;33.08;20.38;;;;;;;;;;5083625;28;20398;-70
2022/12/18 07:28:21;;;;;;;35.88;20.40;;;;;;;;;;5095488;28;20109;-71
2022/12/18 07:30:47;;;;;;;31.08;17.52;;;;;;;;;;5080026;28;20036;-71
2022/12/18 07:33:13;;;;;;;34.22;17.95;;;;;;;;;;5079555;28;20464;-71
2022/12/18 07:35:39;;;;;;;27.95;16.17;;;;;;;;;;5097182;27;20032;-71
2022/12/18 07:38:06;;;;;;;32.15;17.17;;;;;;;;;;5084955;28;20047;-71
2022/12/18 07:40:32;;;;;;;40.53;17.90;;;;;;;;;;5080783;28;20786;-70
2022/12/18 07:42:58;;;;;;;30.65;17.48;;;;;;;;;;5079540;28;20036;-71
2022/12/18 07:45:24;;;;;;;29.55;17.88;;;;;;;;;;5086765;28;20036;-71
2022/12/18 07:47:50;;;;;;;27.55;16.60;;;;;;;;;;5066465;28;20036;-71
2022/12/18 07:50:16;;;;;;;31.90;17.40;;;;;;;;;;5066729;28;20047;-71
2022/12/18 07:52:43;;;;;;;30.77;17.95;;;;;;;;;;5089381;28;20085;-71
2022/12/18 07:55:09;;;;;;;29.45;16.73;;;;;;;;;;5089276;28;20592;-71
2022/12/18 07:57:35;;;;;;;33.35;16.65;;;;;;;;;;5087756;28;20036;-71
2022/12/18 08:00:01;;;;;;;26.13;16.67;;;;;;;;;;5089245;28;20044;-71
2022/12/18 08:02:30;;;;;;;27.80;16.23;;;;;;;;;;5085769;28;20027;-71
2022/12/18 08:04:56;;;;;;;27.75;16.27;;;;;;;;;;5087258;28;20131;-71
2022/12/18 08:07:22;;;;;;;37.20;18.65;;;;;;;;;;5068320;28;20123;-71
2022/12/18 08:09:49;;;;;;;28.33;15.55;;;;;;;;;;5077986;28;20529;-71
2022/12/18 08:12:15;;;;;;;31.30;17.45;;;;;;;;;;5080599;28;20425;-71
2022/12/18 08:14:41;;;;;;;29.33;15.90;;;;;;;;;;5068378;28;20047;-71
2022/12/18 08:17:07;;;;;;;30.60;16.13;;;;;;;;;;5085212;28;20043;-71
2022/12/18 08:19:33;;;;;;;30.05;16.25;;;;;;;;;;5084576;28;20036;-71
2022/12/18 08:21:59;;;;;;;29.58;16.35;;;;;;;;;;5077851;28;20044;-71
2022/12/18 08:24:25;;;;;;;26.52;16.42;;;;;;;;;;5068877;28;20059;-71
2022/12/18 08:26:52;;;;;;;27.15;14.85;;;;;;;;;;5082161;28;20083;-71
2022/12/18 08:29:18;;;;;;;26.75;15.75;;;;;;;;;;5071346;28;20114;-70
2022/12/18 08:31:44;;;;;;;28.38;14.30;;;;;;;;;;5077418;28;20044;-72
2022/12/18 08:34:10;;;;;;;26.33;16.05;;;;;;;;;;5081535;28;20089;-71
2022/12/18 08:36:36;;;;;;;27.25;16.58;;;;;;;;;;5086378;28;20043;-71
2022/12/18 08:39:02;;;;;;;29.10;16.83;;;;;;;;;;5082624;28;20036;-70
2022/12/18 08:41:28;;;;;;;26.40;15.85;;;;;;;;;;5078349;28;20065;-71
2022/12/18 08:46:40;;;;;;;31.00;17.20;;;;;;;;;;5077908;28;20040;-71
2022/12/18 08:49:07;;;;;;;24.65;14.82;;;;;;;;;;5074002;28;20479;-70
2022/12/18 08:51:34;;;;;;;29.45;16.80;;;;;;;;;;5082719;28;20042;-71
2022/12/18 08:54:00;;;;;;;26.02;14.57;;;;;;;;;;5084930;28;20078;-71
2022/12/18 08:56:27;;;;;;;28.73;17.02;;;;;;;;;;5072998;28;20039;-71
2022/12/18 08:58:54;;;;;;;31.85;15.20;;;;;;;;;;5086117;28;20075;-71
2022/12/18 09:01:20;;;;;;;24.42;14.02;;;;;;;;;;5090894;28;20048;-72
2022/12/18 09:03:46;;;;;;;25.35;14.55;;;;;;;;;;5073810;28;20262;-72
2022/12/18 09:06:16;;;;;;;24.98;13.70;;;;;;;;;;5081081;28;21410;-71
2022/12/18 09:08:43;;;;;;;28.17;16.27;;;;;;;;;;5078302;28;20040;-71
2022/12/18 09:11:13;;;;;;;25.35;13.88;;;;;;;;;;5076319;28;20060;-71
2022/12/18 09:13:39;;;;;;;26.48;15.07;;;;;;;;;;5079262;28;20112;-71
2022/12/18 09:16:05;;;;;;;24.23;12.85;;;;;;;;;;5080104;28;20055;-71
2022/12/18 09:18:32;;;;;;;21.23;12.52;;;;;;;;;;5051677;28;20040;-71
2022/12/18 09:20:58;;;;;;;24.58;13.38;;;;;;;;;;5064302;28;20486;-71
2022/12/18 09:23:24;;;;;;;24.67;13.23;;;;;;;;;;5082269;28;20084;-71
2022/12/18 09:25:50;;;;;;;20.73;13.90;;;;;;;;;;5078647;28;20040;-71
2022/12/18 09:28:17;;;;;;;18.65;12.63;;;;;;;;;;5095841;28;20046;-71
2022/12/18 09:30:52;;;;;;;22.17;13.20;;;;;;;;;;5081924;28;20041;-71
2022/12/18 09:33:18;;;;;;;21.40;13.43;;;;;;;;;;5081256;28;20036;-71
2022/12/18 09:35:45;;;;;;;24.90;13.00;;;;;;;;;;5071205;28;20032;-71
2022/12/18 09:38:13;;;;;;;22.02;12.70;;;;;;;;;;5077767;28;20063;-71
2022/12/18 09:40:47;;;;;;;27.02;13.98;;;;;;;;;;5079527;28;20534;-71
2022/12/18 09:43:16;;;;;;;20.85;11.57;;;;;;;;;;5064964;28;20040;-71
2022/12/18 09:45:44;;;;;;;20.80;12.98;;;;;;;;;;5080094;28;20115;-71
2022/12/18 09:48:24;;;;;;;20.45;11.57;;;;;;;;;;5089347;28;20035;-71
2022/12/18 09:50:50;;;;;;;21.48;12.55;;;;;;;;;;5087830;28;20112;-71
2022/12/18 09:53:20;;;;;;;21.77;12.10;;;;;;;;;;5077794;28;20036;-71
2022/12/18 09:55:48;;;;;;;19.73;12.48;;;;;;;;;;5079680;28;20036;-71
2022/12/18 09:58:40;;;;;;;18.00;11.77;;;;;;;;;;5086635;28;20063;-71
2022/12/18 10:01:11;;;;;;;27.25;12.90;;;;;;;;;;5045253;28;20044;-72
2022/12/18 10:03:37;;;;;;;19.55;13.25;;;;;;;;;;5087875;28;20028;-71
2022/12/18 10:06:09;;;;;;;16.65;10.48;;;;;;;;;;5076537;28;20051;-71
2022/12/18 10:08:44;;;;;;;18.15;10.98;;;;;;;;;;5091996;28;20119;-71
2022/12/18 10:11:17;;;;;;;16.50;9.38;;;;;;;;;;5090608;28;20308;-71
2022/12/18 10:13:47;;;;;;;15.68;10.93;;;;;;;;;;5088916;28;20632;-71
2022/12/18 10:16:14;;;;;;;21.13;11.50;;;;;;;;;;5085371;28;20041;-71
2022/12/18 10:18:47;;;;;;;14.70;9.75;;;;;;;;;;5088277;28;20074;-71
2022/12/18 10:21:27;;;;;;;15.00;9.73;;;;;;;;;;5089260;28;20042;-71
2022/12/18 10:24:03;;;;;;;14.00;9.90;;;;;;;;;;5091214;28;20045;-71
2022/12/18 10:26:31;;;;;;;16.50;10.07;;;;;;;;;;5093537;28;20039;-72
2022/12/18 10:28:57;;;;;;;18.45;10.13;;;;;;;;;;5084290;28;20055;-71
2022/12/18 10:31:24;;;;;;;14.18;9.45;;;;;;;;;;5081707;28;20043;-71
2022/12/18 10:33:50;;;;;;;17.27;9.48;;;;;;;;;;5080622;28;20036;-71
2022/12/18 10:36:17;;;;;;;15.63;8.82;;;;;;;;;;5077762;28;20493;-71
2022/12/18 10:38:43;;;;;;;15.02;11.10;;;;;;;;;;5076119;28;20036;-71
2022/12/18 10:41:20;;;;;;;18.65;11.05;;;;;;;;;;5075936;28;20093;-71
2022/12/18 10:43:46;;;;;;;18.85;9.85;;;;;;;;;;5056633;28;20119;-71
2022/12/18 10:46:12;;;;;;;12.82;8.55;;;;;;;;;;5081012;28;20365;-72
2022/12/18 10:48:48;;;;;;;13.05;9.52;;;;;;;;;;5069126;28;20040;-71
2022/12/18 10:51:33;;;;;;;14.55;9.50;;;;;;;;;;5083974;28;20040;-71
2022/12/18 10:54:07;;;;;;;16.77;8.63;;;;;;;;;;5082817;28;20101;-71
2022/12/18 10:56:37;;;;;;;15.95;10.40;;;;;;;;;;5079678;28;20513;-71
2022/12/18 10:59:07;;;;;;;15.25;8.73;;;;;;;;;;5093164;28;20040;-71
2022/12/18 11:01:36;;;;;;;;;;;;;;;;;;5088350;28;20040;-71
2022/12/18 11:04:08;;;;;;;15.32;9.50;;;;;;;;;;5099802;28;19951;-71
2022/12/18 11:06:34;;;;;;;19.63;11.57;;;;;;;;;;5092176;28;20116;-71
2022/12/18 11:09:05;;;;;;;19.95;10.13;;;;;;;;;;5093840;28;20486;-71
2022/12/18 11:11:32;;;;;;;18.17;11.10;;;;;;;;;;5088310;28;20054;-71
2022/12/18 11:13:59;;;;;;;17.02;11.35;;;;;;;;;;5078096;28;20071;-71
2022/12/18 11:16:25;;;;;;;21.58;10.77;;;;;;;;;;5077903;28;20056;-71
2022/12/18 11:18:51;;;;;;;16.90;11.60;;;;;;;;;;5091661;28;20035;-71
2022/12/18 11:21:18;;;;;;;15.20;9.98;;;;;;;;;;5083296;28;20040;-71
2022/12/18 11:23:48;;;;;;;19.83;10.45;;;;;;;;;;5082951;28;20036;-71
2022/12/18 11:26:15;;;;;;;15.82;10.23;;;;;;;;;;5079517;28;20036;-71
2022/12/18 11:28:44;;;;;;;21.08;11.18;;;;;;;;;;5065394;28;20510;-71
2022/12/18 11:31:10;;;;;;;16.80;10.93;;;;;;;;;;5082740;28;20046;-71
2022/12/18 11:33:37;;;;;;;17.35;10.27;;;;;;;;;;5079906;28;20596;-72
2022/12/18 11:36:04;;;;;;;16.02;9.82;;;;;;;;;;5093064;28;20070;-71
2022/12/18 11:38:33;;;;;;;15.73;10.90;;;;;;;;;;5093410;28;20032;-71
2022/12/18 11:41:15;;;;;;;18.38;10.65;;;;;;;;;;5092264;28;20048;-71
2022/12/18 11:43:43;;;;;;;16.52;9.95;;;;;;;;;;5090342;28;20436;-71
2022/12/18 11:46:13;;;;;;;17.27;10.38;;;;;;;;;;5088164;28;20065;-71
2022/12/18 11:48:46;;;;;;;17.85;10.10;;;;;;;;;;5085813;28;20084;-71
2022/12/18 11:51:19;;;;;;;14.20;8.23;;;;;;;;;;5068483;28;20047;-71
2022/12/18 11:53:45;;;;;;;15.43;9.82;;;;;;;;;;5081786;28;20105;-71
2022/12/18 11:56:15;;;;;;;17.88;10.10;;;;;;;;;;5088761;28;20094;-71
2022/12/18 11:58:44;;;;;;;14.27;8.48;;;;;;;;;;5076229;28;20486;-71
2022/12/18 12:01:27;;;;;;;16.00;8.70;;;;;;;;;;5088249;28;20040;-71
2022/12/18 12:03:53;;;;;;;12.95;8.75;;;;;;;;;;5087977;28;20394;-71
2022/12/18 12:06:19;;;;;;;12.32;8.23;;;;;;;;;;5091652;28;20122;-71
2022/12/18 12:09:05;;;;;;;11.75;7.80;;;;;;;;;;5083103;28;20028;-71
2022/12/18 12:11:44;;;;;;;13.52;8.45;;;;;;;;;;5084913;28;20497;-71
2022/12/18 12:14:18;;;;;;;14.70;8.15;;;;;;;;;;5089689;28;20035;-71
2022/12/18 12:16:44;;;;;;;11.13;7.45;;;;;;;;;;5073721;28;20040;-73
2022/12/18 12:19:22;;;;;;;13.23;7.75;;;;;;;;;;5084156;28;20071;-71
2022/12/18 12:21:52;;;;;;;14.20;8.05;;;;;;;;;;5074886;28;20047;-70
2022/12/18 12:24:44;;;;;;;15.82;9.63;;;;;;;;;;5085394;28;20076;-70
2022/12/18 12:27:13;;;;;;;13.13;8.55;;;;;;;;;;5088420;28;20516;-71
2022/12/18 12:29:58;;;;;;;16.05;8.35;;;;;;;;;;5089412;28;20508;-71
2022/12/18 12:32:36;;;;;;;12.25;7.88;;;;;;;;;;5090643;28;20075;-71
2022/12/18 12:35:22;;;;;;;13.63;7.20;;;;;;;;;;5088521;28;20039;-71
2022/12/18 12:37:52;;;;;;;13.45;7.85;;;;;;;;;;5096812;28;20516;-70
2022/12/18 12:40:19;;;;;;;14.50;8.02;;;;;;;;;;5089264;28;20420;-71
2022/12/18 12:45:48;;;;;;;10.27;6.45;;;;;;;;;;5089894;28;20564;-71
2022/12/18 12:48:37;;;;;;;10.88;5.93;;;;;;;;;;5085615;28;20128;-70
2022/12/18 12:51:07;;;;;;;12.73;7.50;;;;;;;;;;5066514;28;20043;-71
2022/12/18 12:53:36;;;;;;;11.98;7.65;;;;;;;;;;5089779;28;20047;-71
2022/12/18 12:56:02;;;;;;;10.07;7.13;;;;;;;;;;5092489;28;20060;-71
2022/12/18 12:58:35;;;;;;;11.73;6.88;;;;;;;;;;5106212;27;20051;-71
2022/12/18 13:01:18;;;;;;;10.20;6.45;;;;;;;;;;5090373;28;20093;-71
2022/12/18 13:03:44;;;;;;;8.52;6.30;;;;;;;;;;5070652;28;20044;-71
2022/12/18 13:06:17;;;;;;;11.70;5.97;;;;;;;;;;5092740;28;20047;-71
2022/12/18 13:08:58;;;;;;;10.32;6.45;;;;;;;;;;5088624;28;20035;-71
2022/12/18 13:14:22;;;;;;;10.85;6.88;;;;;;;;;;5092971;28;20039;-71
2022/12/18 13:16:49;;;;;;;15.02;6.95;;;;;;;;;;5088349;28;20256;-71
2022/12/18 13:19:26;;;;;;;11.05;5.03;;;;;;;;;;5095078;28;20075;-71
2022/12/18 13:21:53;;;;;;;8.52;5.63;;;;;;;;;;5088025;28;20062;-71
2022/12/18 13:24:27;;;;;;;8.63;5.57;;;;;;;;;;5087879;28;20031;-71
2022/12/18 13:26:54;;;;;;;9.05;5.07;;;;;;;;;;5089279;28;20040;-72
2022/12/18 13:29:55;;;;;;;18.45;6.25;;;;;;;;;;5087871;28;20397;-71
2022/12/18 13:32:23;;;;;;;7.90;5.63;;;;;;;;;;5022099;28;20034;-70
2022/12/18 13:35:09;;;;;;;8.73;5.75;;;;;;;;;;5076959;28;20052;-71
2022/12/18 13:37:35;;;;;;;9.70;5.47;;;;;;;;;;5092538;28;20477;-70
2022/12/18 13:40:01;;;;;;;10.30;5.55;;;;;;;;;;5095521;28;20063;-70
2022/12/18 13:45:36;;;;;;;6.50;4.35;;;;;;;;;;5079828;28;20123;-71
2022/12/18 13:48:03;;;;;;;11.52;5.55;;;;;;;;;;5082729;28;20093;-71
2022/12/18 13:50:29;;;;;;;10.30;6.47;;;;;;;;;;5097171;28;20032;-71
2022/12/18 13:52:56;;;;;;;8.63;5.40;;;;;;;;;;5099360;28;20546;-71
2022/12/18 13:55:22;;;;;;;9.90;5.05;;;;;;;;;;5087478;28;20038;-70
2022/12/18 13:57:49;;;;;;;8.70;4.85;;;;;;;;;;5093906;28;20035;-71
2022/12/18 14:00:24;;;;;;;8.90;5.25;;;;;;;;;;5086064;28;20043;-71
2022/12/18 14:02:51;;;;;;;9.85;5.80;;;;;;;;;;5085638;28;20094;-71
2022/12/18 14:05:27;;;;;;;8.63;5.75;;;;;;;;;;5086331;28;20063;-71
2022/12/18 14:07:55;;;;;;;8.15;5.65;;;;;;;;;;5085018;28;20044;-71
2022/12/18 14:10:21;;;;;;;7.68;5.35;;;;;;;;;;5083488;28;20493;-71
2022/12/18 14:12:58;;;;;;;9.13;5.32;;;;;;;;;;5092332;28;20044;-71
2022/12/18 14:15:26;;;;;;;11.10;6.13;;;;;;;;;;5091410;28;20127;-70
2022/12/18 14:18:00;;;;;;;8.23;5.68;;;;;;;;;;5094005;28;20440;-71
2022/12/18 14:20:27;;;;;;;9.15;5.28;;;;;;;;;;5087621;28;20040;-71
2022/12/18 14:22:53;;;;;;;9.13;5.68;;;;;;;;;;5107132;27;20117;-70
2022/12/18 14:25:21;;;;;;;12.07;5.57;;;;;;;;;;5086134;28;20040;-71
2022/12/18 14:27:49;;;;;;;11.38;6.35;;;;;;;;;;5094370;28;20062;-71
2022/12/18 14:30:25;;;;;;;11.77;5.38;;;;;;;;;;5064662;28;20091;-71
2022/12/18 14:33:10;;;;;;;9.68;6.78;;;;;;;;;;5079167;28;20055;-71
2022/12/18 14:35:41;;;;;;;9.20;5.20;;;;;;;;;;5080512;28;20082;-70
2022/12/18 14:38:22;;;;;;;7.63;4.90;;;;;;;;;;5083020;28;20036;-71
2022/12/18 14:40:52;;;;;;;13.80;6.63;;;;;;;;;;5088123;28;20051;-71
2022/12/18 14:43:18;;;;;;;8.50;5.40;;;;;;;;;;5083474;28;20039;-71